createdAt,value
2018-02-04T00:00:54.053Z,1011.75
2018-02-04T00:02:03.253Z,1011.77
2018-02-04T00:03:12.079Z,1011.78
2018-02-04T00:04:21.182Z,1011.8
2018-02-04T00:05:30.008Z,1011.8
2018-02-04T00:06:38.833Z,1011.82
2018-02-04T00:07:48.036Z,1011.86
2018-02-04T00:08:56.858Z,1011.82
2018-02-04T00:10:05.686Z,1011.81
2018-02-04T00:11:14.520Z,1011.84
2018-02-04T00:12:23.340Z,1011.81
2018-02-04T00:13:32.168Z,1011.86
2018-02-04T00:14:41.269Z,1011.86
2018-02-04T00:15:50.096Z,1011.93
2018-02-04T00:16:58.917Z,1011.93
2018-02-04T00:18:07.744Z,1011.94
2018-02-04T00:19:16.619Z,1011.98
2018-02-04T00:20:25.447Z,1011.96
2018-02-04T00:21:34.274Z,1011.99
2018-02-04T00:22:43.099Z,1012.02
2018-02-04T00:23:51.924Z,1011.99
2018-02-04T00:25:00.899Z,1012.02
2018-02-04T00:26:10.273Z,1012.02
2018-02-04T00:27:19.385Z,1012.01
2018-02-04T00:28:28.209Z,1012.07
2018-02-04T00:29:37.033Z,1012.06
2018-02-04T00:30:46.061Z,1012.14
2018-02-04T00:31:54.886Z,1012.08
2018-02-04T00:33:03.715Z,1012.09
2018-02-04T00:34:12.538Z,1012.1
2018-02-04T00:35:21.363Z,1012.13
2018-02-04T00:36:30.190Z,1012.1
2018-02-04T00:37:39.018Z,1012.15
2018-02-04T00:38:47.843Z,1012.1
2018-02-04T00:39:56.941Z,1012.16
2018-02-04T00:41:05.769Z,1012.15
2018-02-04T00:42:14.593Z,1012.17
2018-02-04T00:43:23.689Z,1012.16
2018-02-04T00:44:32.514Z,1012.15
2018-02-04T00:45:41.342Z,1012.16
2018-02-04T00:46:50.166Z,1012.18
2018-02-04T00:47:59.243Z,1012.21
2018-02-04T00:49:08.068Z,1012.21
2018-02-04T00:50:16.893Z,1012.24
2018-02-04T00:51:25.719Z,1012.22
2018-02-04T00:52:34.547Z,1012.23
2018-02-04T00:53:43.749Z,1012.27
2018-02-04T00:54:52.573Z,1012.18
2018-02-04T00:56:01.404Z,1012.23
2018-02-04T00:57:10.226Z,1012.22
2018-02-04T00:58:19.052Z,1012.24
2018-02-04T00:59:28.147Z,1012.27
2018-02-04T01:00:36.973Z,1012.26
2018-02-04T01:01:45.798Z,1012.25
2018-02-04T01:02:54.626Z,1012.29
2018-02-04T01:04:03.724Z,1012.28
2018-02-04T01:05:12.633Z,1012.32
2018-02-04T01:06:21.428Z,1012.29
2018-02-04T01:07:30.530Z,1012.32
2018-02-04T01:08:39.358Z,1012.27
2018-02-04T01:09:48.183Z,1012.32
2018-02-04T01:10:57.157Z,1012.33
2018-02-04T01:12:05.980Z,1012.36
2018-02-04T01:13:14.804Z,1012.35
2018-02-04T01:14:23.629Z,1012.37
2018-02-04T01:15:32.455Z,1012.37
2018-02-04T01:16:41.431Z,1012.42
2018-02-04T01:17:50.530Z,1012.38
2018-02-04T01:18:59.355Z,1012.43
2018-02-04T01:20:08.184Z,1012.45
2018-02-04T01:21:17.011Z,1012.45
2018-02-04T01:22:26.142Z,1012.44
2018-02-04T01:23:34.961Z,1012.48
2018-02-04T01:24:43.786Z,1012.44
2018-02-04T01:25:52.612Z,1012.5
2018-02-04T01:27:01.715Z,1012.44
2018-02-04T01:28:10.542Z,1012.5
2018-02-04T01:29:19.369Z,1012.5
2018-02-04T01:30:28.196Z,1012.51
2018-02-04T01:31:37.021Z,1012.5
2018-02-04T01:32:45.848Z,1012.54
2018-02-04T01:33:54.824Z,1012.53
2018-02-04T01:35:03.648Z,1012.57
2018-02-04T01:36:12.474Z,1012.57
2018-02-04T01:37:21.300Z,1012.58
2018-02-04T01:38:30.124Z,1012.6
2018-02-04T01:39:38.949Z,1012.61
2018-02-04T01:40:47.774Z,1012.65
2018-02-04T01:41:56.604Z,1012.68
2018-02-04T01:43:05.705Z,1012.69
2018-02-04T01:44:14.534Z,1012.7
2018-02-04T01:45:23.460Z,1012.7
2018-02-04T01:46:32.287Z,1012.69
2018-02-04T01:47:41.111Z,1012.73
2018-02-04T01:48:50.210Z,1012.67
2018-02-04T01:49:59.038Z,1012.69
2018-02-04T01:51:08.189Z,1012.61
2018-02-04T01:52:17.016Z,1012.64
2018-02-04T01:53:26.118Z,1012.64
2018-02-04T01:54:34.944Z,1012.66
2018-02-04T01:55:43.771Z,1012.71
2018-02-04T01:56:52.753Z,1012.63
2018-02-04T01:58:01.574Z,1012.7
2018-02-04T01:59:10.401Z,1012.66
2018-02-04T02:00:19.226Z,1012.68
2018-02-04T02:01:28.053Z,1012.68
2018-02-04T02:02:37.181Z,1012.7
2018-02-04T02:03:46.007Z,1012.69
2018-02-04T02:04:54.832Z,1012.7
2018-02-04T02:06:03.658Z,1012.7
2018-02-04T02:07:12.769Z,1012.73
2018-02-04T02:08:21.594Z,1012.76
2018-02-04T02:09:30.692Z,1012.76
2018-02-04T02:10:39.519Z,1012.8
2018-02-04T02:11:48.345Z,1012.8
2018-02-04T02:12:57.172Z,1012.77
2018-02-04T02:14:06.001Z,1012.78
2018-02-04T02:15:14.826Z,1012.81
2018-02-04T02:16:23.653Z,1012.82
2018-02-04T02:17:32.477Z,1012.8
2018-02-04T02:18:41.579Z,1012.79
2018-02-04T02:19:50.505Z,1012.76
2018-02-04T02:20:59.333Z,1012.77
2018-02-04T02:22:08.160Z,1012.8
2018-02-04T02:23:17.261Z,1012.83
2018-02-04T02:24:26.086Z,1012.82
2018-02-04T02:25:35.163Z,1012.85
2018-02-04T02:26:43.989Z,1012.86
2018-02-04T02:27:52.818Z,1012.86
2018-02-04T02:29:01.645Z,1012.84
2018-02-04T02:30:10.472Z,1012.87
2018-02-04T02:31:19.600Z,1012.86
2018-02-04T02:32:28.425Z,1012.9
2018-02-04T02:33:37.252Z,1012.9
2018-02-04T02:34:46.079Z,1012.88
2018-02-04T02:35:54.907Z,1012.88
2018-02-04T02:37:03.734Z,1012.9
2018-02-04T02:38:12.837Z,1012.95
2018-02-04T02:39:21.665Z,1012.93
2018-02-04T02:40:30.491Z,1012.92
2018-02-04T02:41:39.600Z,1012.98
2018-02-04T02:42:48.526Z,1013.01
2018-02-04T02:43:57.627Z,1013.05
2018-02-04T02:45:06.732Z,1013.06
2018-02-04T02:46:15.556Z,1013.04
2018-02-04T02:47:24.662Z,1013.07
2018-02-04T02:48:33.760Z,1013.1
2018-02-04T02:49:42.591Z,1013.15
2018-02-04T02:50:51.415Z,1013.11
2018-02-04T02:52:00.519Z,1013.16
2018-02-04T02:53:09.348Z,1013.17
2018-02-04T02:54:18.270Z,1013.14
2018-02-04T02:55:27.095Z,1013.22
2018-02-04T02:56:35.920Z,1013.17
2018-02-04T02:57:44.746Z,1013.16
2018-02-04T02:58:53.573Z,1013.18
2018-02-04T03:00:02.650Z,1013.18
2018-02-04T03:01:11.475Z,1013.19
2018-02-04T03:02:20.302Z,1013.24
2018-02-04T03:03:29.129Z,1013.24
2018-02-04T03:04:37.953Z,1013.29
2018-02-04T03:05:46.979Z,1013.29
2018-02-04T03:06:55.805Z,1013.25
2018-02-04T03:08:05.183Z,1013.3
2018-02-04T03:09:14.011Z,1013.23
2018-02-04T03:10:22.838Z,1013.27
2018-02-04T03:11:31.969Z,1013.28
2018-02-04T03:12:40.793Z,1013.26
2018-02-04T03:13:49.619Z,1013.24
2018-02-04T03:14:58.447Z,1013.2
2018-02-04T03:16:07.323Z,1013.32
2018-02-04T03:17:16.254Z,1013.33
2018-02-04T03:18:25.077Z,1013.29
2018-02-04T03:19:33.903Z,1013.34
2018-02-04T03:20:42.731Z,1013.36
2018-02-04T03:21:51.556Z,1013.32
2018-02-04T03:23:00.533Z,1013.32
2018-02-04T03:24:09.357Z,1013.36
2018-02-04T03:25:18.184Z,1013.35
2018-02-04T03:26:27.013Z,1013.35
2018-02-04T03:27:36.129Z,1013.35
2018-02-04T03:28:45.000Z,1013.38
2018-02-04T03:29:53.823Z,1013.43
2018-02-04T03:31:02.655Z,1013.41
2018-02-04T03:32:11.481Z,1013.4
2018-02-04T03:33:20.305Z,1013.44
2018-02-04T03:34:29.133Z,1013.39
2018-02-04T03:35:37.958Z,1013.43
2018-02-04T03:36:46.786Z,1013.43
2018-02-04T03:37:55.612Z,1013.48
2018-02-04T03:39:04.441Z,1013.51
2018-02-04T03:40:13.266Z,1013.52
2018-02-04T03:41:22.091Z,1013.52
2018-02-04T03:42:30.918Z,1013.52
2018-02-04T03:43:39.744Z,1013.55
2018-02-04T03:44:48.572Z,1013.56
2018-02-04T03:45:57.399Z,1013.61
2018-02-04T03:47:06.225Z,1013.6
2018-02-04T03:48:15.050Z,1013.61
2018-02-04T03:49:23.876Z,1013.63
2018-02-04T03:50:32.705Z,1013.63
2018-02-04T03:51:41.530Z,1013.62
2018-02-04T03:52:50.357Z,1013.61
2018-02-04T03:53:59.186Z,1013.59
2018-02-04T03:55:08.013Z,1013.61
2018-02-04T03:56:17.114Z,1013.61
2018-02-04T03:57:26.243Z,1013.61
2018-02-04T03:58:35.068Z,1013.62
2018-02-04T03:59:43.895Z,1013.6
2018-02-04T04:00:52.722Z,1013.57
2018-02-04T04:02:01.548Z,1013.62
2018-02-04T04:03:10.373Z,1013.64
2018-02-04T04:04:19.199Z,1013.64
2018-02-04T04:05:28.026Z,1013.68
2018-02-04T04:06:36.852Z,1013.67
2018-02-04T04:07:45.683Z,1013.64
2018-02-04T04:08:54.705Z,1013.69
2018-02-04T04:10:03.531Z,1013.7
2018-02-04T04:11:12.355Z,1013.71
2018-02-04T04:12:21.181Z,1013.71
2018-02-04T04:13:30.006Z,1013.75
2018-02-04T04:14:39.205Z,1013.74
2018-02-04T04:15:48.032Z,1013.77
2018-02-04T04:16:56.859Z,1013.8
2018-02-04T04:18:05.686Z,1013.8
2018-02-04T04:19:14.510Z,1013.82
2018-02-04T04:20:23.339Z,1013.88
2018-02-04T04:21:32.167Z,1013.93
2018-02-04T04:22:40.993Z,1013.89
2018-02-04T04:23:49.818Z,1013.95
2018-02-04T04:24:58.644Z,1013.95
2018-02-04T04:26:07.569Z,1013.96
2018-02-04T04:27:16.395Z,1014
2018-02-04T04:28:25.220Z,1014
2018-02-04T04:29:34.047Z,1014.06
2018-02-04T04:30:42.874Z,1014.06
2018-02-04T04:31:51.851Z,1014.04
2018-02-04T04:33:00.680Z,1014.06
2018-02-04T04:34:09.778Z,1014.08
2018-02-04T04:35:18.604Z,1014.06
2018-02-04T04:36:27.428Z,1014.12
2018-02-04T04:37:36.255Z,1014.14
2018-02-04T04:38:45.082Z,1014.12
2018-02-04T04:39:53.907Z,1014.15
2018-02-04T04:41:02.735Z,1014.15
2018-02-04T04:42:11.840Z,1014.23
2018-02-04T04:43:20.667Z,1014.23
2018-02-04T04:44:29.492Z,1014.27
2018-02-04T04:45:38.319Z,1014.34
2018-02-04T04:46:47.145Z,1014.3
2018-02-04T04:47:55.969Z,1014.33
2018-02-04T04:49:04.944Z,1014.36
2018-02-04T04:50:13.768Z,1014.38
2018-02-04T04:51:22.599Z,1014.43
2018-02-04T04:52:31.419Z,1014.42
2018-02-04T04:53:40.244Z,1014.42
2018-02-04T04:54:49.169Z,1014.46
2018-02-04T04:55:57.994Z,1014.47
2018-02-04T04:57:06.819Z,1014.53
2018-02-04T04:58:15.916Z,1014.52
2018-02-04T04:59:24.742Z,1014.51
2018-02-04T05:00:33.768Z,1014.57
2018-02-04T05:01:42.594Z,1014.61
2018-02-04T05:02:51.419Z,1014.6
2018-02-04T05:04:00.243Z,1014.64
2018-02-04T05:05:09.070Z,1014.63
2018-02-04T05:06:18.195Z,1014.66
2018-02-04T05:07:27.022Z,1014.61
2018-02-04T05:08:35.846Z,1014.67
2018-02-04T05:09:44.673Z,1014.78
2018-02-04T05:10:53.496Z,1014.73
2018-02-04T05:12:03.249Z,1014.78
2018-02-04T05:13:12.075Z,1014.74
2018-02-04T05:14:20.899Z,1014.8
2018-02-04T05:15:29.997Z,1014.77
2018-02-04T05:16:38.825Z,1014.8
2018-02-04T05:17:47.650Z,1014.77
2018-02-04T05:18:56.478Z,1014.8
2018-02-04T05:20:05.304Z,1014.81
2018-02-04T05:21:14.137Z,1014.85
2018-02-04T05:22:22.963Z,1014.85
2018-02-04T05:23:31.840Z,1014.91
2018-02-04T05:24:40.764Z,1014.96
2018-02-04T05:25:49.589Z,1014.97
2018-02-04T05:26:58.413Z,1014.96
2018-02-04T05:28:07.239Z,1015.05
2018-02-04T05:29:16.065Z,1015.03
2018-02-04T05:30:24.889Z,1015.09
2018-02-04T05:31:33.715Z,1015.11
2018-02-04T05:32:42.540Z,1015.1
2018-02-04T05:33:51.367Z,1015.17
2018-02-04T05:35:00.192Z,1015.14
2018-02-04T05:36:09.019Z,1015.17
2018-02-04T05:37:17.844Z,1015.19
2018-02-04T05:38:26.669Z,1015.19
2018-02-04T05:39:35.494Z,1015.2
2018-02-04T05:40:44.521Z,1015.24
2018-02-04T05:41:53.347Z,1015.26
2018-02-04T05:43:02.179Z,1015.3
2018-02-04T05:44:11.005Z,1015.24
2018-02-04T05:45:19.830Z,1015.3
2018-02-04T05:46:28.755Z,1015.31
2018-02-04T05:47:37.583Z,1015.31
2018-02-04T05:48:46.407Z,1015.36
2018-02-04T05:49:55.276Z,1015.41
2018-02-04T05:51:04.060Z,1015.43
2018-02-04T05:52:13.261Z,1015.48
2018-02-04T05:53:22.085Z,1015.55
2018-02-04T05:54:31.188Z,1015.57
2018-02-04T05:55:40.017Z,1015.58
2018-02-04T05:56:48.842Z,1015.61
2018-02-04T05:57:57.769Z,1015.65
2018-02-04T05:59:06.594Z,1015.69
2018-02-04T06:00:15.421Z,1015.71
2018-02-04T06:01:24.249Z,1015.7
2018-02-04T06:02:33.075Z,1015.67
2018-02-04T06:03:41.955Z,1015.67
2018-02-04T06:04:51.051Z,1015.72
2018-02-04T06:05:59.877Z,1015.73
2018-02-04T06:07:08.705Z,1015.8
2018-02-04T06:08:17.530Z,1015.79
2018-02-04T06:09:26.455Z,1015.84
2018-02-04T06:10:35.290Z,1015.89
2018-02-04T06:11:44.106Z,1015.87
2018-02-04T06:12:52.930Z,1015.87
2018-02-04T06:14:01.778Z,1015.88
2018-02-04T06:15:10.583Z,1015.88
2018-02-04T06:16:19.411Z,1015.93
2018-02-04T06:17:28.236Z,1015.96
2018-02-04T06:18:37.063Z,1016.04
2018-02-04T06:19:45.890Z,1016.06
2018-02-04T06:20:54.865Z,1016.12
2018-02-04T06:22:03.701Z,1016.15
2018-02-04T06:23:12.526Z,1016.2
2018-02-04T06:24:21.352Z,1016.26
2018-02-04T06:25:30.179Z,1016.27
2018-02-04T06:26:39.307Z,1016.32
2018-02-04T06:27:48.141Z,1016.33
2018-02-04T06:28:56.961Z,1016.39
2018-02-04T06:30:05.790Z,1016.33
2018-02-04T06:31:14.613Z,1016.43
2018-02-04T06:32:23.589Z,1016.45
2018-02-04T06:33:32.417Z,1016.45
2018-02-04T06:34:41.241Z,1016.51
2018-02-04T06:35:50.067Z,1016.5
2018-02-04T06:36:58.892Z,1016.55
2018-02-04T06:38:07.868Z,1016.57
2018-02-04T06:39:16.692Z,1016.64
2018-02-04T06:40:25.517Z,1016.57
2018-02-04T06:41:34.341Z,1016.63
2018-02-04T06:42:43.168Z,1016.66
2018-02-04T06:43:52.144Z,1016.73
2018-02-04T06:45:00.973Z,1016.79
2018-02-04T06:46:10.088Z,1016.85
2018-02-04T06:47:18.915Z,1016.85
2018-02-04T06:48:27.743Z,1016.88
2018-02-04T06:49:36.570Z,1016.96
2018-02-04T06:50:45.398Z,1016.99
2018-02-04T06:51:54.224Z,1017.05
2018-02-04T06:53:03.051Z,1017.05
2018-02-04T06:54:11.879Z,1017.12
2018-02-04T06:55:20.856Z,1017.07
2018-02-04T06:56:29.684Z,1017.1
2018-02-04T06:57:38.510Z,1017.12
2018-02-04T06:58:47.659Z,1017.15
2018-02-04T06:59:56.761Z,1017.18
2018-02-04T07:01:05.861Z,1017.18
2018-02-04T07:02:14.687Z,1017.21
2018-02-04T07:03:23.515Z,1017.2
2018-02-04T07:04:32.341Z,1017.21
2018-02-04T07:05:41.169Z,1017.23
2018-02-04T07:06:50.421Z,1017.21
2018-02-04T07:07:59.247Z,1017.22
2018-02-04T07:09:08.074Z,1017.26
2018-02-04T07:10:16.903Z,1017.31
2018-02-04T07:11:25.728Z,1017.34
2018-02-04T07:12:34.708Z,1017.35
2018-02-04T07:13:43.536Z,1017.39
2018-02-04T07:14:52.356Z,1017.38
2018-02-04T07:16:01.184Z,1017.4
2018-02-04T07:17:10.011Z,1017.43
2018-02-04T07:18:18.886Z,1017.42
2018-02-04T07:19:27.711Z,1017.46
2018-02-04T07:20:36.539Z,1017.5
2018-02-04T07:21:45.364Z,1017.53
2018-02-04T07:22:54.189Z,1017.56
2018-02-04T07:24:03.166Z,1017.65
2018-02-04T07:25:11.992Z,1017.65
2018-02-04T07:26:20.819Z,1017.64
2018-02-04T07:27:29.652Z,1017.7
2018-02-04T07:28:38.476Z,1017.73
2018-02-04T07:29:47.301Z,1017.72
2018-02-04T07:30:56.128Z,1017.74
2018-02-04T07:32:04.954Z,1017.74
2018-02-04T07:33:13.780Z,1017.83
2018-02-04T07:34:22.607Z,1017.86
2018-02-04T07:35:31.534Z,1017.87
2018-02-04T07:36:40.360Z,1017.86
2018-02-04T07:37:49.186Z,1017.9
2018-02-04T07:38:58.016Z,1017.95
2018-02-04T07:40:06.840Z,1017.98
2018-02-04T07:41:15.770Z,1018
2018-02-04T07:42:24.592Z,1018.03
2018-02-04T07:43:33.419Z,1018.04
2018-02-04T07:44:42.245Z,1018.1
2018-02-04T07:45:51.069Z,1018.13
2018-02-04T07:46:59.944Z,1018.17
2018-02-04T07:48:08.770Z,1018.21
2018-02-04T07:49:17.597Z,1018.32
2018-02-04T07:50:26.424Z,1018.37
2018-02-04T07:51:35.249Z,1018.34
2018-02-04T07:52:44.074Z,1018.35
2018-02-04T07:53:52.902Z,1018.39
2018-02-04T07:55:01.726Z,1018.44
2018-02-04T07:56:10.550Z,1018.49
2018-02-04T07:57:19.376Z,1018.52
2018-02-04T07:58:28.501Z,1018.5
2018-02-04T07:59:37.325Z,1018.54
2018-02-04T08:00:46.426Z,1018.59
2018-02-04T08:01:55.271Z,1018.6
2018-02-04T08:03:04.096Z,1018.65
2018-02-04T08:04:13.074Z,1018.67
2018-02-04T08:05:21.900Z,1018.69
2018-02-04T08:06:30.730Z,1018.72
2018-02-04T08:07:39.557Z,1018.68
2018-02-04T08:08:48.391Z,1018.7
2018-02-04T08:09:57.543Z,1018.74
2018-02-04T08:11:06.370Z,1018.77
2018-02-04T08:12:15.196Z,1018.82
2018-02-04T08:13:24.022Z,1018.8
2018-02-04T08:14:33.122Z,1018.88
2018-02-04T08:15:42.247Z,1018.95
2018-02-04T08:16:51.073Z,1018.95
2018-02-04T08:17:59.901Z,1018.99
2018-02-04T08:19:08.729Z,1019.03
2018-02-04T08:20:17.560Z,1019.04
2018-02-04T08:21:26.532Z,1019.09
2018-02-04T08:22:35.632Z,1019.05
2018-02-04T08:23:44.458Z,1019.07
2018-02-04T08:24:53.286Z,1019.1
2018-02-04T08:26:02.113Z,1019.07
2018-02-04T08:27:11.091Z,1019.14
2018-02-04T08:28:19.918Z,1019.13
2018-02-04T08:29:28.744Z,1019.13
2018-02-04T08:30:37.853Z,1019.17
2018-02-04T08:31:46.964Z,1019.2
2018-02-04T08:32:56.092Z,1019.3
2018-02-04T08:34:04.917Z,1019.25
2018-02-04T08:35:13.745Z,1019.31
2018-02-04T08:36:22.575Z,1019.32
2018-02-04T08:37:31.402Z,1019.31
2018-02-04T08:38:40.435Z,1019.39
2018-02-04T08:39:49.207Z,1019.39
2018-02-04T08:40:58.034Z,1019.46
2018-02-04T08:42:06.860Z,1019.44
2018-02-04T08:43:15.686Z,1019.48
2018-02-04T08:44:24.916Z,1019.49
2018-02-04T08:45:33.744Z,1019.55
2018-02-04T08:46:42.570Z,1019.61
2018-02-04T08:47:51.399Z,1019.59
2018-02-04T08:49:00.514Z,1019.6
2018-02-04T08:50:09.438Z,1019.65
2018-02-04T08:51:18.267Z,1019.73
2018-02-04T08:52:27.094Z,1019.73
2018-02-04T08:53:36.197Z,1019.75
2018-02-04T08:54:45.024Z,1019.78
2018-02-04T08:55:53.953Z,1019.8
2018-02-04T08:57:02.783Z,1019.83
2018-02-04T08:58:11.609Z,1019.83
2018-02-04T08:59:20.435Z,1019.86
2018-02-04T09:00:29.275Z,1019.87
2018-02-04T09:01:38.212Z,1019.92
2018-02-04T09:02:47.029Z,1019.95
2018-02-04T09:03:55.856Z,1019.97
2018-02-04T09:05:04.688Z,1019.99
2018-02-04T09:06:13.514Z,1019.96
2018-02-04T09:07:22.665Z,1020.03
2018-02-04T09:08:31.494Z,1019.98
2018-02-04T09:09:40.321Z,1020.03
2018-02-04T09:10:49.147Z,1020.03
2018-02-04T09:11:57.979Z,1020.01
2018-02-04T09:13:07.078Z,1020.05
2018-02-04T09:14:15.905Z,1020.09
2018-02-04T09:15:24.783Z,1020.1
2018-02-04T09:16:33.609Z,1020.09
2018-02-04T09:17:42.439Z,1020.14
2018-02-04T09:18:51.622Z,1020.17
2018-02-04T09:20:00.494Z,1020.19
2018-02-04T09:21:09.338Z,1020.22
2018-02-04T09:22:18.164Z,1020.21
2018-02-04T09:23:27.026Z,1020.3
2018-02-04T09:24:36.151Z,1020.32
2018-02-04T09:25:45.012Z,1020.3
2018-02-04T09:26:54.426Z,1020.29
2018-02-04T09:28:03.235Z,1020.3
2018-02-04T09:29:12.061Z,1020.35
2018-02-04T09:30:20.979Z,1020.36
2018-02-04T09:31:29.804Z,1020.37
2018-02-04T09:32:38.632Z,1020.41
2018-02-04T09:33:47.462Z,1020.39
2018-02-04T09:34:56.288Z,1020.41
2018-02-04T09:36:05.115Z,1020.35
2018-02-04T09:37:13.943Z,1020.39
2018-02-04T09:38:22.850Z,1020.43
2018-02-04T09:39:31.672Z,1020.45
2018-02-04T09:40:40.498Z,1020.48
2018-02-04T09:41:49.478Z,1020.43
2018-02-04T09:42:58.309Z,1020.37
2018-02-04T09:44:07.136Z,1020.35
2018-02-04T09:45:15.961Z,1020.38
2018-02-04T09:46:24.790Z,1020.46
2018-02-04T09:47:33.620Z,1020.41
2018-02-04T09:48:42.447Z,1020.43
2018-02-04T09:49:51.271Z,1020.44
2018-02-04T09:51:00.097Z,1020.47
2018-02-04T09:52:08.943Z,1020.47
2018-02-04T09:53:18.095Z,1020.53
2018-02-04T09:54:26.921Z,1020.5
2018-02-04T09:55:35.747Z,1020.58
2018-02-04T09:56:44.607Z,1020.65
2018-02-04T09:57:53.434Z,1020.67
2018-02-04T09:59:02.318Z,1020.66
2018-02-04T10:00:11.148Z,1020.67
2018-02-04T10:01:19.976Z,1020.68
2018-02-04T10:02:28.820Z,1020.76
2018-02-04T10:03:37.659Z,1020.86
2018-02-04T10:04:46.495Z,1020.88
2018-02-04T10:05:55.329Z,1020.88
2018-02-04T10:07:04.541Z,1020.97
2018-02-04T10:08:13.365Z,1020.99
2018-02-04T10:09:22.193Z,1021
2018-02-04T10:10:31.705Z,1020.99
2018-02-04T10:11:40.620Z,1021.01
2018-02-04T10:12:49.579Z,1021.12
2018-02-04T10:13:58.828Z,1021.11
2018-02-04T10:15:07.957Z,1021.12
2018-02-04T10:16:17.268Z,1021.07
2018-02-04T10:17:26.185Z,1021.06
2018-02-04T10:18:35.092Z,1021.1
2018-02-04T10:19:44.067Z,1021.08
2018-02-04T10:20:53.203Z,1021.08
2018-02-04T10:22:02.613Z,1021.1
2018-02-04T10:23:11.529Z,1021.16
2018-02-04T10:24:20.497Z,1021.13
2018-02-04T10:25:29.650Z,1021.16
2018-02-04T10:26:39.184Z,1021.18
2018-02-04T10:27:49.263Z,1021.17
2018-02-04T10:28:58.375Z,1021.14
2018-02-04T10:30:07.247Z,1021.15
2018-02-04T10:31:16.236Z,1021.19
2018-02-04T10:32:25.438Z,1021.18
2018-02-04T10:33:34.431Z,1021.17
2018-02-04T10:34:43.341Z,1021.24
2018-02-04T10:35:52.191Z,1021.21
2018-02-04T10:37:01.133Z,1021.2
2018-02-04T10:38:10.050Z,1021.21
2018-02-04T10:39:19.081Z,1021.21
2018-02-04T10:40:28.294Z,1021.28
2018-02-04T10:41:37.212Z,1021.25
2018-02-04T10:42:46.147Z,1021.21
2018-02-04T10:43:55.080Z,1021.21
2018-02-04T10:45:03.975Z,1021.22
2018-02-04T10:46:12.848Z,1021.26
2018-02-04T10:47:22.112Z,1021.28
2018-02-04T10:48:31.007Z,1021.32
2018-02-04T10:49:39.893Z,1021.33
2018-02-04T10:50:48.750Z,1021.34
2018-02-04T10:51:57.661Z,1021.35
2018-02-04T10:53:06.901Z,1021.38
2018-02-04T10:54:15.789Z,1021.36
2018-02-04T10:55:24.743Z,1021.43
2018-02-04T10:56:33.630Z,1021.38
2018-02-04T10:57:42.459Z,1021.37
2018-02-04T10:58:51.436Z,1021.37
2018-02-04T11:00:00.269Z,1021.44
2018-02-04T11:01:09.097Z,1021.41
2018-02-04T11:02:17.948Z,1021.46
2018-02-04T11:03:26.916Z,1021.49
2018-02-04T11:04:35.914Z,1021.52
2018-02-04T11:05:45.096Z,1021.5
2018-02-04T11:06:53.975Z,1021.51
2018-02-04T11:08:02.842Z,1021.43
2018-02-04T11:09:11.722Z,1021.52
2018-02-04T11:10:20.774Z,1021.52
2018-02-04T11:11:29.588Z,1021.53
2018-02-04T11:12:38.481Z,1021.53
2018-02-04T11:13:47.361Z,1021.55
2018-02-04T11:14:56.244Z,1021.61
2018-02-04T11:16:05.149Z,1021.57
2018-02-04T11:17:14.012Z,1021.58
2018-02-04T11:18:23.217Z,1021.55
2018-02-04T11:19:32.125Z,1021.57
2018-02-04T11:20:41.011Z,1021.59
2018-02-04T11:21:50.061Z,1021.6
2018-02-04T11:22:59.423Z,1021.61
2018-02-04T11:24:08.622Z,1021.61
2018-02-04T11:25:17.481Z,1021.6
2018-02-04T11:26:26.312Z,1021.65
2018-02-04T11:27:35.197Z,1021.66
2018-02-04T11:28:44.041Z,1021.65
2018-02-04T11:29:53.597Z,1021.65
2018-02-04T11:31:02.503Z,1021.64
2018-02-04T11:32:12.173Z,1021.61
2018-02-04T11:34:59.801Z,1021.67
2018-02-04T11:36:08.816Z,1021.69
2018-02-04T11:37:17.711Z,1021.69
2018-02-04T11:38:26.791Z,1021.66
2018-02-04T11:39:36.137Z,1021.7
2018-02-04T11:40:45.596Z,1021.69
2018-02-04T11:41:54.676Z,1021.72
2018-02-04T11:43:03.879Z,1021.73
2018-02-04T11:44:13.278Z,1021.7
2018-02-04T11:45:22.270Z,1021.73
2018-02-04T11:46:31.798Z,1021.67
2018-02-04T11:47:40.674Z,1021.69
2018-02-04T11:48:49.561Z,1021.68
2018-02-04T11:49:58.956Z,1021.7
2018-02-04T11:51:08.153Z,1021.74
2018-02-04T11:52:17.057Z,1021.78
2018-02-04T11:53:26.131Z,1021.78
2018-02-04T11:54:35.004Z,1021.79
2018-02-04T11:55:44.078Z,1021.82
2018-02-04T11:56:52.907Z,1021.83
2018-02-04T11:58:01.736Z,1021.86
2018-02-04T11:59:10.630Z,1021.83
2018-02-04T12:00:19.491Z,1021.81
2018-02-04T12:01:28.421Z,1021.83
2018-02-04T12:02:37.250Z,1021.84
2018-02-04T12:03:46.079Z,1021.92
2018-02-04T12:04:54.908Z,1021.85
2018-02-04T12:06:03.736Z,1021.92
2018-02-04T12:07:12.664Z,1021.91
2018-02-04T12:08:21.494Z,1021.95
2018-02-04T12:09:30.322Z,1021.89
2018-02-04T12:10:39.152Z,1021.92
2018-02-04T12:11:48.251Z,1021.91
2018-02-04T12:12:57.081Z,1021.94
2018-02-04T12:14:05.912Z,1021.95
2018-02-04T12:15:14.739Z,1021.95
2018-02-04T12:16:23.569Z,1021.92
2018-02-04T12:17:32.396Z,1021.93
2018-02-04T12:18:41.376Z,1021.94
2018-02-04T12:19:50.203Z,1021.93
2018-02-04T12:20:59.034Z,1021.91
2018-02-04T12:22:07.861Z,1021.95
2018-02-04T12:23:16.687Z,1021.92
2018-02-04T12:24:25.622Z,1021.92
2018-02-04T12:25:34.446Z,1021.88
2018-02-04T12:26:43.274Z,1021.89
2018-02-04T12:27:52.102Z,1021.96
2018-02-04T12:29:00.930Z,1021.93
2018-02-04T12:30:09.758Z,1021.96
2018-02-04T12:31:18.586Z,1021.94
2018-02-04T12:32:27.415Z,1021.91
2018-02-04T12:33:36.244Z,1021.97
2018-02-04T12:34:45.071Z,1021.92
2018-02-04T12:35:54.477Z,1021.97
2018-02-04T12:37:03.304Z,1021.99
2018-02-04T12:38:12.132Z,1021.99
2018-02-04T12:39:20.963Z,1022
2018-02-04T12:40:29.793Z,1022.07
2018-02-04T12:41:38.622Z,1022.05
2018-02-04T12:42:47.449Z,1022.06
2018-02-04T12:43:56.280Z,1022.04
2018-02-04T12:45:05.110Z,1022.05
2018-02-04T12:46:13.937Z,1022.06
2018-02-04T12:47:22.765Z,1022.05
2018-02-04T12:48:31.592Z,1022.05
2018-02-04T12:49:40.420Z,1022.05
2018-02-04T12:50:49.249Z,1022.05
2018-02-04T12:51:58.076Z,1022.04
2018-02-04T12:53:07.004Z,1022.07
2018-02-04T12:54:15.833Z,1022.07
2018-02-04T12:55:24.661Z,1022.06
2018-02-04T12:56:33.490Z,1022.07
2018-02-04T12:57:42.318Z,1022.1
2018-02-04T12:58:51.449Z,1022.12
2018-02-04T13:00:00.276Z,1022.08
2018-02-04T13:01:09.105Z,1022.08
2018-02-04T13:02:17.935Z,1022.12
2018-02-04T13:03:26.762Z,1022.13
2018-02-04T13:04:35.590Z,1022.1
2018-02-04T13:05:44.419Z,1022.17
2018-02-04T13:06:53.246Z,1022.12
2018-02-04T13:08:02.073Z,1022.16
2018-02-04T13:09:10.903Z,1022.15
2018-02-04T13:10:19.827Z,1022.14
2018-02-04T13:11:28.656Z,1022.14
2018-02-04T13:12:37.483Z,1022.12
2018-02-04T13:13:46.309Z,1022.13
2018-02-04T13:14:55.140Z,1022.12
2018-02-04T13:16:03.986Z,1022.13
2018-02-04T13:17:12.811Z,1022.14
2018-02-04T13:18:21.639Z,1022.15
2018-02-04T13:19:30.742Z,1022.18
2018-02-04T13:20:39.573Z,1022.19
2018-02-04T13:21:48.696Z,1022.18
2018-02-04T13:22:57.523Z,1022.27
2018-02-04T13:24:06.625Z,1022.25
2018-02-04T13:25:15.453Z,1022.26
2018-02-04T13:26:24.284Z,1022.31
2018-02-04T13:27:33.108Z,1022.27
2018-02-04T13:28:41.935Z,1022.32
2018-02-04T13:29:50.813Z,1022.28
2018-02-04T13:30:59.645Z,1022.28
2018-02-04T13:32:08.474Z,1022.31
2018-02-04T13:33:17.506Z,1022.3
2018-02-04T13:34:26.335Z,1022.26
2018-02-04T13:35:35.162Z,1022.32
2018-02-04T13:36:43.992Z,1022.33
2018-02-04T13:37:52.818Z,1022.31
2018-02-04T13:39:01.795Z,1022.36
2018-02-04T13:40:10.900Z,1022.32
2018-02-04T13:41:19.727Z,1022.36
2018-02-04T13:42:28.554Z,1022.32
2018-02-04T13:43:37.390Z,1022.37
2018-02-04T13:44:46.568Z,1022.34
2018-02-04T13:45:55.558Z,1022.37
2018-02-04T13:47:04.506Z,1022.39
2018-02-04T13:48:13.455Z,1022.44
2018-02-04T13:49:22.328Z,1022.48
2018-02-04T13:50:31.274Z,1022.48
2018-02-04T13:51:40.197Z,1022.49
2018-02-04T13:52:49.105Z,1022.45
2018-02-04T13:53:57.980Z,1022.45
2018-02-04T13:55:06.888Z,1022.47
2018-02-04T13:56:15.833Z,1022.52
2018-02-04T13:57:24.740Z,1022.53
2018-02-04T13:58:33.567Z,1022.53